sensor_id;sensor_type;location;lat;lon;timestamp;P1;durP1;ratioP1;P2;durP2;ratioP2
17310;SDS011;8773;43.300;0.394;2023-08-17T00:02:07;5.68;;;2.50;;
17310;SDS011;8773;43.300;0.394;2023-08-17T00:04:35;3.15;;;2.50;;
17310;SDS011;8773;43.300;0.394;2023-08-17T00:07:02;2.97;;;2.22;;
17310;SDS011;8773;43.300;0.394;2023-08-17T00:09:30;2.60;;;2.40;;
17310;SDS011;8773;43.300;0.394;2023-08-17T00:11:59;2.97;;;2.30;;
17310;SDS011;8773;43.300;0.394;2023-08-17T00:14:26;3.53;;;2.53;;
17310;SDS011;8773;43.300;0.394;2023-08-17T00:16:53;2.58;;;2.42;;
17310;SDS011;8773;43.300;0.394;2023-08-17T00:19:21;2.53;;;2.20;;
17310;SDS011;8773;43.300;0.394;2023-08-17T00:21:48;2.10;;;1.90;;
17310;SDS011;8773;43.300;0.394;2023-08-17T00:24:16;2.50;;;2.30;;
17310;SDS011;8773;43.300;0.394;2023-08-17T00:26:43;2.50;;;2.30;;
17310;SDS011;8773;43.300;0.394;2023-08-17T00:29:12;2.58;;;2.28;;
17310;SDS011;8773;43.300;0.394;2023-08-17T00:31:39;2.47;;;2.28;;
17310;SDS011;8773;43.300;0.394;2023-08-17T00:34:07;2.15;;;2.00;;
17310;SDS011;8773;43.300;0.394;2023-08-17T00:36:34;3.38;;;2.50;;
17310;SDS011;8773;43.300;0.394;2023-08-17T00:39:01;2.72;;;2.35;;
17310;SDS011;8773;43.300;0.394;2023-08-17T00:41:29;2.85;;;2.65;;
17310;SDS011;8773;43.300;0.394;2023-08-17T00:43:57;3.08;;;2.50;;
17310;SDS011;8773;43.300;0.394;2023-08-17T00:46:25;2.67;;;2.47;;
17310;SDS011;8773;43.300;0.394;2023-08-17T00:48:53;2.50;;;2.10;;
17310;SDS011;8773;43.300;0.394;2023-08-17T00:51:21;2.63;;;2.33;;
17310;SDS011;8773;43.300;0.394;2023-08-17T00:53:50;3.92;;;2.20;;
17310;SDS011;8773;43.300;0.394;2023-08-17T00:56:18;2.10;;;1.90;;
17310;SDS011;8773;43.300;0.394;2023-08-17T00:58:46;2.35;;;2.10;;
17310;SDS011;8773;43.300;0.394;2023-08-17T01:01:13;2.17;;;1.80;;
17310;SDS011;8773;43.300;0.394;2023-08-17T01:03:42;3.80;;;2.00;;
17310;SDS011;8773;43.300;0.394;2023-08-17T01:06:10;2.47;;;1.95;;
17310;SDS011;8773;43.300;0.394;2023-08-17T01:08:37;3.20;;;2.22;;
17310;SDS011;8773;43.300;0.394;2023-08-17T01:11:08;2.20;;;2.10;;
17310;SDS011;8773;43.300;0.394;2023-08-17T01:13:44;2.08;;;1.90;;
17310;SDS011;8773;43.300;0.394;2023-08-17T01:16:18;2.00;;;1.90;;
17310;SDS011;8773;43.300;0.394;2023-08-17T01:18:53;2.78;;;2.00;;
17310;SDS011;8773;43.300;0.394;2023-08-17T01:21:22;2.33;;;2.13;;
17310;SDS011;8773;43.300;0.394;2023-08-17T01:23:57;2.30;;;2.10;;
17310;SDS011;8773;43.300;0.394;2023-08-17T01:26:24;4.50;;;2.47;;
17310;SDS011;8773;43.300;0.394;2023-08-17T01:28:51;2.10;;;2.00;;
17310;SDS011;8773;43.300;0.394;2023-08-17T01:31:19;2.17;;;2.08;;
17310;SDS011;8773;43.300;0.394;2023-08-17T01:33:52;2.20;;;1.95;;
17310;SDS011;8773;43.300;0.394;2023-08-17T01:36:25;2.42;;;2.10;;
17310;SDS011;8773;43.300;0.394;2023-08-17T01:38:58;2.10;;;2.00;;
17310;SDS011;8773;43.300;0.394;2023-08-17T01:41:27;2.58;;;1.90;;
17310;SDS011;8773;43.300;0.394;2023-08-17T01:43:55;2.40;;;1.88;;
17310;SDS011;8773;43.300;0.394;2023-08-17T01:46:27;4.43;;;2.30;;
17310;SDS011;8773;43.300;0.394;2023-08-17T01:48:57;2.90;;;2.20;;
17310;SDS011;8773;43.300;0.394;2023-08-17T01:51:24;3.50;;;2.20;;
17310;SDS011;8773;43.300;0.394;2023-08-17T01:53:52;3.22;;;1.95;;
17310;SDS011;8773;43.300;0.394;2023-08-17T01:56:20;1.90;;;1.80;;
17310;SDS011;8773;43.300;0.394;2023-08-17T01:58:48;2.10;;;1.88;;
17310;SDS011;8773;43.300;0.394;2023-08-17T02:01:15;3.33;;;2.28;;
17310;SDS011;8773;43.300;0.394;2023-08-17T02:03:43;2.38;;;1.90;;
17310;SDS011;8773;43.300;0.394;2023-08-17T02:06:10;2.10;;;1.90;;
17310;SDS011;8773;43.300;0.394;2023-08-17T02:08:38;2.80;;;1.85;;
17310;SDS011;8773;43.300;0.394;2023-08-17T02:11:05;2.80;;;1.95;;
17310;SDS011;8773;43.300;0.394;2023-08-17T02:13:34;3.65;;;2.10;;
17310;SDS011;8773;43.300;0.394;2023-08-17T02:16:01;2.42;;;2.00;;
17310;SDS011;8773;43.300;0.394;2023-08-17T02:18:29;1.90;;;1.60;;
17310;SDS011;8773;43.300;0.394;2023-08-17T02:20:56;5.50;;;1.70;;
17310;SDS011;8773;43.300;0.394;2023-08-17T02:23:24;2.85;;;2.00;;
17310;SDS011;8773;43.300;0.394;2023-08-17T02:25:51;1.98;;;1.75;;
17310;SDS011;8773;43.300;0.394;2023-08-17T02:28:19;1.88;;;1.65;;
17310;SDS011;8773;43.300;0.394;2023-08-17T02:30:48;1.95;;;1.85;;
17310;SDS011;8773;43.300;0.394;2023-08-17T02:33:15;2.47;;;1.73;;
17310;SDS011;8773;43.300;0.394;2023-08-17T02:35:43;1.88;;;1.60;;
17310;SDS011;8773;43.300;0.394;2023-08-17T02:38:15;2.05;;;1.88;;
17310;SDS011;8773;43.300;0.394;2023-08-17T02:40:42;1.80;;;1.70;;
17310;SDS011;8773;43.300;0.394;2023-08-17T02:43:10;2.00;;;1.88;;
17310;SDS011;8773;43.300;0.394;2023-08-17T02:45:37;3.95;;;1.98;;
17310;SDS011;8773;43.300;0.394;2023-08-17T02:48:06;2.53;;;2.33;;
17310;SDS011;8773;43.300;0.394;2023-08-17T02:50:34;3.85;;;2.25;;
17310;SDS011;8773;43.300;0.394;2023-08-17T02:53:01;1.77;;;1.67;;
17310;SDS011;8773;43.300;0.394;2023-08-17T02:55:29;1.90;;;1.80;;
17310;SDS011;8773;43.300;0.394;2023-08-17T02:57:56;3.35;;;1.80;;
17310;SDS011;8773;43.300;0.394;2023-08-17T03:00:23;2.67;;;1.92;;
17310;SDS011;8773;43.300;0.394;2023-08-17T03:02:51;3.35;;;2.03;;
17310;SDS011;8773;43.300;0.394;2023-08-17T03:05:20;3.40;;;2.10;;
17310;SDS011;8773;43.300;0.394;2023-08-17T03:07:47;3.63;;;1.92;;
17310;SDS011;8773;43.300;0.394;2023-08-17T03:10:15;2.30;;;1.92;;
17310;SDS011;8773;43.300;0.394;2023-08-17T03:12:42;2.25;;;2.15;;
17310;SDS011;8773;43.300;0.394;2023-08-17T03:15:10;3.22;;;1.92;;
17310;SDS011;8773;43.300;0.394;2023-08-17T03:17:37;2.75;;;2.13;;
17310;SDS011;8773;43.300;0.394;2023-08-17T03:20:05;3.63;;;2.03;;
17310;SDS011;8773;43.300;0.394;2023-08-17T03:22:35;2.47;;;1.90;;
17310;SDS011;8773;43.300;0.394;2023-08-17T03:25:03;2.72;;;2.10;;
17310;SDS011;8773;43.300;0.394;2023-08-17T03:27:31;5.30;;;2.38;;
17310;SDS011;8773;43.300;0.394;2023-08-17T03:29:58;2.20;;;2.00;;
17310;SDS011;8773;43.300;0.394;2023-08-17T03:32:26;2.55;;;2.25;;
17310;SDS011;8773;43.300;0.394;2023-08-17T03:34:53;1.92;;;1.83;;
17310;SDS011;8773;43.300;0.394;2023-08-17T03:37:21;3.40;;;2.33;;
17310;SDS011;8773;43.300;0.394;2023-08-17T03:39:49;2.97;;;1.90;;
17310;SDS011;8773;43.300;0.394;2023-08-17T03:42:17;2.60;;;2.40;;
17310;SDS011;8773;43.300;0.394;2023-08-17T03:44:44;3.53;;;2.17;;
17310;SDS011;8773;43.300;0.394;2023-08-17T03:47:11;2.85;;;2.30;;
17310;SDS011;8773;43.300;0.394;2023-08-17T03:49:39;2.28;;;2.08;;
17310;SDS011;8773;43.300;0.394;2023-08-17T03:52:06;2.47;;;2.28;;
17310;SDS011;8773;43.300;0.394;2023-08-17T03:54:34;2.88;;;2.50;;
17310;SDS011;8773;43.300;0.394;2023-08-17T03:57:02;2.38;;;2.17;;
17310;SDS011;8773;43.300;0.394;2023-08-17T03:59:30;2.60;;;2.40;;
17310;SDS011;8773;43.300;0.394;2023-08-17T04:01:58;3.72;;;2.25;;
17310;SDS011;8773;43.300;0.394;2023-08-17T04:04:26;3.33;;;2.75;;
17310;SDS011;8773;43.300;0.394;2023-08-17T04:06:53;2.63;;;2.42;;
17310;SDS011;8773;43.300;0.394;2023-08-17T04:09:20;4.43;;;2.42;;
17310;SDS011;8773;43.300;0.394;2023-08-17T04:11:48;2.40;;;2.30;;
17310;SDS011;8773;43.300;0.394;2023-08-17T04:14:16;2.78;;;2.58;;
17310;SDS011;8773;43.300;0.394;2023-08-17T04:16:46;2.50;;;2.30;;
17310;SDS011;8773;43.300;0.394;2023-08-17T04:19:13;2.65;;;2.45;;
17310;SDS011;8773;43.300;0.394;2023-08-17T04:21:41;3.40;;;2.65;;
17310;SDS011;8773;43.300;0.394;2023-08-17T04:24:08;2.83;;;2.63;;
17310;SDS011;8773;43.300;0.394;2023-08-17T04:26:35;2.90;;;2.70;;
17310;SDS011;8773;43.300;0.394;2023-08-17T04:29:03;3.22;;;2.83;;
17310;SDS011;8773;43.300;0.394;2023-08-17T04:31:32;2.83;;;2.63;;
17310;SDS011;8773;43.300;0.394;2023-08-17T04:33:59;4.13;;;2.53;;
17310;SDS011;8773;43.300;0.394;2023-08-17T04:36:27;2.63;;;2.50;;
17310;SDS011;8773;43.300;0.394;2023-08-17T04:38:54;3.08;;;2.88;;
17310;SDS011;8773;43.300;0.394;2023-08-17T04:41:22;2.85;;;2.65;;
17310;SDS011;8773;43.300;0.394;2023-08-17T04:43:49;2.58;;;2.47;;
17310;SDS011;8773;43.300;0.394;2023-08-17T04:46:17;3.08;;;2.80;;
17310;SDS011;8773;43.300;0.394;2023-08-17T04:48:46;2.85;;;2.70;;
17310;SDS011;8773;43.300;0.394;2023-08-17T04:51:13;2.97;;;2.72;;
17310;SDS011;8773;43.300;0.394;2023-08-17T04:53:43;3.13;;;2.78;;
17310;SDS011;8773;43.300;0.394;2023-08-17T04:56:10;3.05;;;2.80;;
17310;SDS011;8773;43.300;0.394;2023-08-17T04:58:37;2.72;;;2.40;;
17310;SDS011;8773;43.300;0.394;2023-08-17T05:01:05;3.67;;;2.67;;
17310;SDS011;8773;43.300;0.394;2023-08-17T05:03:32;2.90;;;2.70;;
17310;SDS011;8773;43.300;0.394;2023-08-17T05:06:01;2.50;;;2.30;;
17310;SDS011;8773;43.300;0.394;2023-08-17T05:08:29;3.22;;;2.45;;
17310;SDS011;8773;43.300;0.394;2023-08-17T05:10:57;2.35;;;2.25;;
17310;SDS011;8773;43.300;0.394;2023-08-17T05:13:24;2.42;;;2.22;;
17310;SDS011;8773;43.300;0.394;2023-08-17T05:15:52;2.67;;;2.47;;
17310;SDS011;8773;43.300;0.394;2023-08-17T05:18:19;2.50;;;2.25;;
17310;SDS011;8773;43.300;0.394;2023-08-17T05:20:47;2.83;;;2.58;;
17310;SDS011;8773;43.300;0.394;2023-08-17T05:23:15;2.80;;;2.30;;
17310;SDS011;8773;43.300;0.394;2023-08-17T05:25:45;2.30;;;2.20;;
17310;SDS011;8773;43.300;0.394;2023-08-17T05:28:13;2.25;;;2.05;;
17310;SDS011;8773;43.300;0.394;2023-08-17T05:30:41;2.40;;;2.08;;
17310;SDS011;8773;43.300;0.394;2023-08-17T05:33:08;3.65;;;2.30;;
17310;SDS011;8773;43.300;0.394;2023-08-17T05:35:35;3.20;;;2.30;;
17310;SDS011;8773;43.300;0.394;2023-08-17T05:38:03;3.70;;;2.22;;
17310;SDS011;8773;43.300;0.394;2023-08-17T05:40:32;2.40;;;2.20;;
17310;SDS011;8773;43.300;0.394;2023-08-17T05:42:59;2.63;;;2.35;;
17310;SDS011;8773;43.300;0.394;2023-08-17T05:45:27;2.47;;;2.22;;
17310;SDS011;8773;43.300;0.394;2023-08-17T05:47:54;2.40;;;2.05;;
17310;SDS011;8773;43.300;0.394;2023-08-17T05:50:22;2.30;;;2.10;;
17310;SDS011;8773;43.300;0.394;2023-08-17T05:52:49;2.67;;;2.00;;
17310;SDS011;8773;43.300;0.394;2023-08-17T05:55:17;3.97;;;3.63;;
17310;SDS011;8773;43.300;0.394;2023-08-17T05:57:45;2.40;;;2.20;;
17310;SDS011;8773;43.300;0.394;2023-08-17T06:00:13;3.25;;;2.17;;
17310;SDS011;8773;43.300;0.394;2023-08-17T06:02:41;2.60;;;2.40;;
17310;SDS011;8773;43.300;0.394;2023-08-17T06:05:09;3.95;;;2.25;;
17310;SDS011;8773;43.300;0.394;2023-08-17T06:07:36;2.92;;;2.40;;
17310;SDS011;8773;43.300;0.394;2023-08-17T06:10:04;2.35;;;2.13;;
17310;SDS011;8773;43.300;0.394;2023-08-17T06:12:32;1.88;;;1.77;;
17310;SDS011;8773;43.300;0.394;2023-08-17T06:15:01;2.70;;;2.00;;
17310;SDS011;8773;43.300;0.394;2023-08-17T06:17:29;2.63;;;2.10;;
17310;SDS011;8773;43.300;0.394;2023-08-17T06:19:57;2.88;;;2.15;;
17310;SDS011;8773;43.300;0.394;2023-08-17T06:22:24;2.33;;;1.80;;
17310;SDS011;8773;43.300;0.394;2023-08-17T06:24:51;1.90;;;1.80;;
17310;SDS011;8773;43.300;0.394;2023-08-17T06:27:19;2.80;;;1.90;;
17310;SDS011;8773;43.300;0.394;2023-08-17T06:29:46;2.40;;;1.90;;
17310;SDS011;8773;43.300;0.394;2023-08-17T06:32:15;3.10;;;1.90;;
17310;SDS011;8773;43.300;0.394;2023-08-17T06:34:44;3.13;;;2.10;;
17310;SDS011;8773;43.300;0.394;2023-08-17T06:37:11;2.30;;;2.10;;
17310;SDS011;8773;43.300;0.394;2023-08-17T06:39:38;2.75;;;1.85;;
17310;SDS011;8773;43.300;0.394;2023-08-17T06:42:06;3.05;;;2.17;;
17310;SDS011;8773;43.300;0.394;2023-08-17T06:44:33;2.28;;;2.08;;
17310;SDS011;8773;43.300;0.394;2023-08-17T06:47:00;2.50;;;2.30;;
17310;SDS011;8773;43.300;0.394;2023-08-17T06:49:30;2.90;;;2.28;;
17310;SDS011;8773;43.300;0.394;2023-08-17T06:51:57;2.30;;;2.20;;
17310;SDS011;8773;43.300;0.394;2023-08-17T06:54:24;2.15;;;2.05;;
17310;SDS011;8773;43.300;0.394;2023-08-17T06:56:52;2.80;;;2.42;;
17310;SDS011;8773;43.300;0.394;2023-08-17T06:59:19;2.60;;;2.40;;
17310;SDS011;8773;43.300;0.394;2023-08-17T07:01:47;3.17;;;2.50;;
17310;SDS011;8773;43.300;0.394;2023-08-17T07:04:14;2.63;;;2.40;;
17310;SDS011;8773;43.300;0.394;2023-08-17T07:06:43;5.82;;;2.60;;
17310;SDS011;8773;43.300;0.394;2023-08-17T07:09:11;2.95;;;2.33;;
17310;SDS011;8773;43.300;0.394;2023-08-17T07:11:38;4.13;;;2.50;;
17310;SDS011;8773;43.300;0.394;2023-08-17T07:14:05;2.40;;;2.20;;
17310;SDS011;8773;43.300;0.394;2023-08-17T07:16:33;2.40;;;2.28;;
17310;SDS011;8773;43.300;0.394;2023-08-17T07:19:01;2.80;;;2.30;;
17310;SDS011;8773;43.300;0.394;2023-08-17T07:21:29;2.28;;;2.08;;
17310;SDS011;8773;43.300;0.394;2023-08-17T07:23:58;2.17;;;1.90;;
17310;SDS011;8773;43.300;0.394;2023-08-17T07:26:38;1.85;;;1.75;;
17310;SDS011;8773;43.300;0.394;2023-08-17T07:29:06;1.83;;;1.73;;
17310;SDS011;8773;43.300;0.394;2023-08-17T07:31:33;2.08;;;1.65;;
17310;SDS011;8773;43.300;0.394;2023-08-17T07:34:01;2.10;;;1.70;;
17310;SDS011;8773;43.300;0.394;2023-08-17T07:36:28;1.90;;;1.80;;
17310;SDS011;8773;43.300;0.394;2023-08-17T07:38:57;1.90;;;1.52;;
17310;SDS011;8773;43.300;0.394;2023-08-17T07:41:25;2.08;;;1.90;;
17310;SDS011;8773;43.300;0.394;2023-08-17T07:43:52;1.50;;;1.50;;
17310;SDS011;8773;43.300;0.394;2023-08-17T07:46:19;2.33;;;1.80;;
17310;SDS011;8773;43.300;0.394;2023-08-17T07:48:47;2.40;;;1.90;;
17310;SDS011;8773;43.300;0.394;2023-08-17T07:51:14;2.08;;;1.98;;
17310;SDS011;8773;43.300;0.394;2023-08-17T07:53:42;2.42;;;2.08;;
17310;SDS011;8773;43.300;0.394;2023-08-17T07:56:11;2.20;;;2.00;;
17310;SDS011;8773;43.300;0.394;2023-08-17T07:58:38;3.22;;;2.47;;
17310;SDS011;8773;43.300;0.394;2023-08-17T08:01:05;2.63;;;2.30;;
17310;SDS011;8773;43.300;0.394;2023-08-17T08:03:33;2.25;;;2.05;;
17310;SDS011;8773;43.300;0.394;2023-08-17T08:06:00;2.17;;;2.05;;
17310;SDS011;8773;43.300;0.394;2023-08-17T08:08:28;2.30;;;2.20;;
17310;SDS011;8773;43.300;0.394;2023-08-17T08:10:55;3.42;;;2.35;;
17310;SDS011;8773;43.300;0.394;2023-08-17T08:13:24;3.28;;;2.85;;
17310;SDS011;8773;43.300;0.394;2023-08-17T08:15:51;3.50;;;3.33;;
17310;SDS011;8773;43.300;0.394;2023-08-17T08:18:19;3.90;;;3.70;;
17310;SDS011;8773;43.300;0.394;2023-08-17T08:20:47;3.90;;;3.67;;
17310;SDS011;8773;43.300;0.394;2023-08-17T08:23:15;4.88;;;4.30;;
17310;SDS011;8773;43.300;0.394;2023-08-17T08:25:43;9.32;;;4.72;;
17310;SDS011;8773;43.300;0.394;2023-08-17T08:28:11;4.60;;;4.28;;
17310;SDS011;8773;43.300;0.394;2023-08-17T08:30:39;4.40;;;4.00;;
17310;SDS011;8773;43.300;0.394;2023-08-17T08:33:07;3.92;;;3.65;;
17310;SDS011;8773;43.300;0.394;2023-08-17T08:35:34;4.60;;;3.97;;
17310;SDS011;8773;43.300;0.394;2023-08-17T08:38:02;4.13;;;3.70;;
17310;SDS011;8773;43.300;0.394;2023-08-17T08:40:29;3.90;;;3.60;;
17310;SDS011;8773;43.300;0.394;2023-08-17T08:42:57;4.20;;;3.83;;
17310;SDS011;8773;43.300;0.394;2023-08-17T08:45:25;4.10;;;3.85;;
17310;SDS011;8773;43.300;0.394;2023-08-17T08:47:56;3.90;;;3.70;;
17310;SDS011;8773;43.300;0.394;2023-08-17T08:50:27;4.07;;;3.88;;
17310;SDS011;8773;43.300;0.394;2023-08-17T08:52:59;3.90;;;3.70;;
17310;SDS011;8773;43.300;0.394;2023-08-17T08:55:28;3.67;;;3.47;;
17310;SDS011;8773;43.300;0.394;2023-08-17T08:57:57;4.07;;;3.80;;
17310;SDS011;8773;43.300;0.394;2023-08-17T09:00:26;3.80;;;3.50;;
17310;SDS011;8773;43.300;0.394;2023-08-17T09:02:53;4.18;;;3.80;;
17310;SDS011;8773;43.300;0.394;2023-08-17T09:05:24;4.15;;;3.72;;
17310;SDS011;8773;43.300;0.394;2023-08-17T09:07:52;4.25;;;3.83;;
17310;SDS011;8773;43.300;0.394;2023-08-17T09:10:21;3.85;;;3.65;;
17310;SDS011;8773;43.300;0.394;2023-08-17T09:12:48;6.30;;;4.28;;
17310;SDS011;8773;43.300;0.394;2023-08-17T09:15:16;3.95;;;3.65;;
17310;SDS011;8773;43.300;0.394;2023-08-17T09:17:44;3.72;;;3.53;;
17310;SDS011;8773;43.300;0.394;2023-08-17T09:20:12;4.07;;;3.78;;
17310;SDS011;8773;43.300;0.394;2023-08-17T09:23:01;3.80;;;3.50;;
17310;SDS011;8773;43.300;0.394;2023-08-17T09:25:30;4.35;;;4.05;;
17310;SDS011;8773;43.300;0.394;2023-08-17T09:27:58;4.28;;;3.90;;
17310;SDS011;8773;43.300;0.394;2023-08-17T09:30:26;5.85;;;3.63;;
17310;SDS011;8773;43.300;0.394;2023-08-17T09:32:53;4.53;;;4.00;;
17310;SDS011;8773;43.300;0.394;2023-08-17T09:35:21;3.83;;;3.63;;
17310;SDS011;8773;43.300;0.394;2023-08-17T09:37:48;4.60;;;4.00;;
17310;SDS011;8773;43.300;0.394;2023-08-17T09:40:17;4.63;;;4.25;;
17310;SDS011;8773;43.300;0.394;2023-08-17T09:42:48;4.15;;;3.85;;
17310;SDS011;8773;43.300;0.394;2023-08-17T09:45:17;4.40;;;4.10;;
17310;SDS011;8773;43.300;0.394;2023-08-17T09:47:44;3.92;;;3.72;;
17310;SDS011;8773;43.300;0.394;2023-08-17T09:50:13;3.90;;;3.60;;
17310;SDS011;8773;43.300;0.394;2023-08-17T09:52:40;4.00;;;3.70;;
17310;SDS011;8773;43.300;0.394;2023-08-17T09:55:08;4.00;;;3.80;;
17310;SDS011;8773;43.300;0.394;2023-08-17T09:57:40;4.43;;;3.90;;
17310;SDS011;8773;43.300;0.394;2023-08-17T10:00:09;4.28;;;3.70;;
17310;SDS011;8773;43.300;0.394;2023-08-17T10:02:40;4.10;;;3.80;;
17310;SDS011;8773;43.300;0.394;2023-08-17T10:05:11;4.15;;;3.90;;
17310;SDS011;8773;43.300;0.394;2023-08-17T10:07:40;3.85;;;3.65;;
17310;SDS011;8773;43.300;0.394;2023-08-17T10:10:11;3.85;;;3.63;;
17310;SDS011;8773;43.300;0.394;2023-08-17T10:12:43;4.05;;;3.85;;
17310;SDS011;8773;43.300;0.394;2023-08-17T10:15:13;4.22;;;3.92;;
17310;SDS011;8773;43.300;0.394;2023-08-17T10:17:47;4.47;;;4.18;;
17310;SDS011;8773;43.300;0.394;2023-08-17T10:20:22;4.20;;;3.90;;
17310;SDS011;8773;43.300;0.394;2023-08-17T10:22:52;4.60;;;4.30;;
17310;SDS011;8773;43.300;0.394;2023-08-17T10:25:25;4.35;;;3.95;;
17310;SDS011;8773;43.300;0.394;2023-08-17T10:27:56;4.30;;;4.00;;
17310;SDS011;8773;43.300;0.394;2023-08-17T10:30:26;4.95;;;4.55;;
17310;SDS011;8773;43.300;0.394;2023-08-17T10:32:54;4.53;;;4.22;;
17310;SDS011;8773;43.300;0.394;2023-08-17T10:35:22;4.93;;;4.60;;
17310;SDS011;8773;43.300;0.394;2023-08-17T10:37:50;4.78;;;4.40;;
17310;SDS011;8773;43.300;0.394;2023-08-17T10:40:21;4.68;;;4.18;;
17310;SDS011;8773;43.300;0.394;2023-08-17T10:42:53;4.30;;;4.10;;
17310;SDS011;8773;43.300;0.394;2023-08-17T10:45:26;4.65;;;4.35;;
17310;SDS011;8773;43.300;0.394;2023-08-17T10:50:58;5.03;;;4.60;;
17310;SDS011;8773;43.300;0.394;2023-08-17T10:53:36;4.68;;;4.47;;
17310;SDS011;8773;43.300;0.394;2023-08-17T10:56:06;4.80;;;4.30;;
17310;SDS011;8773;43.300;0.394;2023-08-17T10:58:35;5.10;;;4.80;;
17310;SDS011;8773;43.300;0.394;2023-08-17T11:01:04;4.65;;;4.35;;
17310;SDS011;8773;43.300;0.394;2023-08-17T11:03:31;5.18;;;4.88;;
17310;SDS011;8773;43.300;0.394;2023-08-17T11:05:58;5.50;;;5.10;;
17310;SDS011;8773;43.300;0.394;2023-08-17T11:08:50;5.22;;;4.82;;
17310;SDS011;8773;43.300;0.394;2023-08-17T11:11:19;4.85;;;4.45;;
17310;SDS011;8773;43.300;0.394;2023-08-17T11:13:48;5.18;;;4.88;;
17310;SDS011;8773;43.300;0.394;2023-08-17T11:16:17;4.95;;;4.65;;
17310;SDS011;8773;43.300;0.394;2023-08-17T11:18:45;5.43;;;5.03;;
17310;SDS011;8773;43.300;0.394;2023-08-17T11:21:13;4.75;;;4.45;;
17310;SDS011;8773;43.300;0.394;2023-08-17T11:23:45;7.13;;;5.55;;
17310;SDS011;8773;43.300;0.394;2023-08-17T11:26:15;5.22;;;4.75;;
17310;SDS011;8773;43.300;0.394;2023-08-17T11:28:42;4.45;;;4.13;;
17310;SDS011;8773;43.300;0.394;2023-08-17T11:31:11;5.38;;;5.07;;
17310;SDS011;8773;43.300;0.394;2023-08-17T11:33:41;5.05;;;4.65;;
17310;SDS011;8773;43.300;0.394;2023-08-17T11:36:09;5.10;;;4.80;;
17310;SDS011;8773;43.300;0.394;2023-08-17T11:38:37;5.85;;;5.35;;
17310;SDS011;8773;43.300;0.394;2023-08-17T11:41:06;5.07;;;4.78;;
17310;SDS011;8773;43.300;0.394;2023-08-17T11:43:34;5.50;;;4.78;;
17310;SDS011;8773;43.300;0.394;2023-08-17T11:46:01;5.63;;;5.15;;
17310;SDS011;8773;43.300;0.394;2023-08-17T11:48:30;6.53;;;5.95;;
17310;SDS011;8773;43.300;0.394;2023-08-17T11:51:04;6.65;;;6.10;;
17310;SDS011;8773;43.300;0.394;2023-08-17T11:53:35;6.47;;;5.82;;
17310;SDS011;8773;43.300;0.394;2023-08-17T11:56:04;6.63;;;6.22;;
17310;SDS011;8773;43.300;0.394;2023-08-17T11:58:36;6.68;;;6.07;;
17310;SDS011;8773;43.300;0.394;2023-08-17T12:01:08;6.43;;;5.82;;
17310;SDS011;8773;43.300;0.394;2023-08-17T12:03:36;6.35;;;5.95;;
17310;SDS011;8773;43.300;0.394;2023-08-17T12:06:06;6.65;;;6.15;;
17310;SDS011;8773;43.300;0.394;2023-08-17T12:08:34;5.93;;;5.43;;
17310;SDS011;8773;43.300;0.394;2023-08-17T12:11:02;6.40;;;5.85;;
17310;SDS011;8773;43.300;0.394;2023-08-17T12:13:30;6.55;;;6.03;;
17310;SDS011;8773;43.300;0.394;2023-08-17T12:15:59;6.40;;;5.90;;
17310;SDS011;8773;43.300;0.394;2023-08-17T12:18:27;6.82;;;6.22;;
17310;SDS011;8773;43.300;0.394;2023-08-17T12:20:54;6.30;;;5.90;;
17310;SDS011;8773;43.300;0.394;2023-08-17T12:23:24;6.75;;;6.20;;
17310;SDS011;8773;43.300;0.394;2023-08-17T12:25:54;6.50;;;6.00;;
17310;SDS011;8773;43.300;0.394;2023-08-17T12:28:22;7.13;;;6.45;;
17310;SDS011;8773;43.300;0.394;2023-08-17T12:30:57;7.15;;;6.47;;
17310;SDS011;8773;43.300;0.394;2023-08-17T12:33:26;7.25;;;6.75;;
17310;SDS011;8773;43.300;0.394;2023-08-17T12:35:53;5.97;;;5.60;;
17310;SDS011;8773;43.300;0.394;2023-08-17T12:38:23;6.53;;;5.93;;
17310;SDS011;8773;43.300;0.394;2023-08-17T12:40:52;6.90;;;6.47;;
17310;SDS011;8773;43.300;0.394;2023-08-17T12:43:20;7.18;;;6.57;;
17310;SDS011;8773;43.300;0.394;2023-08-17T12:45:48;7.53;;;6.85;;
17310;SDS011;8773;43.300;0.394;2023-08-17T12:48:15;7.38;;;6.85;;
17310;SDS011;8773;43.300;0.394;2023-08-17T12:50:43;7.13;;;6.63;;
17310;SDS011;8773;43.300;0.394;2023-08-17T12:53:10;6.85;;;6.40;;
17310;SDS011;8773;43.300;0.394;2023-08-17T12:55:39;6.65;;;6.20;;
17310;SDS011;8773;43.300;0.394;2023-08-17T12:58:07;7.15;;;6.68;;
17310;SDS011;8773;43.300;0.394;2023-08-17T13:00:35;6.85;;;6.43;;
17310;SDS011;8773;43.300;0.394;2023-08-17T13:03:03;6.30;;;5.88;;
17310;SDS011;8773;43.300;0.394;2023-08-17T13:05:32;6.60;;;6.10;;
17310;SDS011;8773;43.300;0.394;2023-08-17T13:07:59;6.15;;;5.78;;
17310;SDS011;8773;43.300;0.394;2023-08-17T13:10:27;6.68;;;6.07;;
17310;SDS011;8773;43.300;0.394;2023-08-17T13:12:56;6.85;;;6.35;;
17310;SDS011;8773;43.300;0.394;2023-08-17T13:15:23;6.10;;;5.70;;
17310;SDS011;8773;43.300;0.394;2023-08-17T13:17:51;6.35;;;5.88;;
17310;SDS011;8773;43.300;0.394;2023-08-17T13:20:18;7.40;;;6.80;;
17310;SDS011;8773;43.300;0.394;2023-08-17T13:22:46;6.65;;;6.15;;
17310;SDS011;8773;43.300;0.394;2023-08-17T13:25:13;6.40;;;6.00;;
17310;SDS011;8773;43.300;0.394;2023-08-17T13:27:41;6.85;;;6.32;;
17310;SDS011;8773;43.300;0.394;2023-08-17T13:30:10;6.68;;;6.07;;
17310;SDS011;8773;43.300;0.394;2023-08-17T13:32:38;6.80;;;6.20;;
17310;SDS011;8773;43.300;0.394;2023-08-17T13:35:05;6.72;;;6.22;;
17310;SDS011;8773;43.300;0.394;2023-08-17T13:37:35;6.00;;;5.70;;
17310;SDS011;8773;43.300;0.394;2023-08-17T13:40:04;6.15;;;5.75;;
17310;SDS011;8773;43.300;0.394;2023-08-17T13:42:32;6.25;;;5.75;;
17310;SDS011;8773;43.300;0.394;2023-08-17T13:44:59;6.35;;;5.85;;
17310;SDS011;8773;43.300;0.394;2023-08-17T13:47:28;7.03;;;6.60;;
17310;SDS011;8773;43.300;0.394;2023-08-17T13:49:56;6.90;;;6.40;;
17310;SDS011;8773;43.300;0.394;2023-08-17T13:52:25;6.93;;;6.40;;
17310;SDS011;8773;43.300;0.394;2023-08-17T13:54:53;7.20;;;6.50;;
17310;SDS011;8773;43.300;0.394;2023-08-17T13:57:20;7.40;;;6.90;;
17310;SDS011;8773;43.300;0.394;2023-08-17T13:59:48;7.25;;;6.55;;
17310;SDS011;8773;43.300;0.394;2023-08-17T14:02:15;6.97;;;6.50;;
17310;SDS011;8773;43.300;0.394;2023-08-17T14:04:44;8.13;;;7.35;;
17310;SDS011;8773;43.300;0.394;2023-08-17T14:07:12;7.30;;;6.80;;
17310;SDS011;8773;43.300;0.394;2023-08-17T14:09:39;7.05;;;6.55;;
17310;SDS011;8773;43.300;0.394;2023-08-17T14:12:20;6.53;;;6.05;;
17310;SDS011;8773;43.300;0.394;2023-08-17T14:14:47;7.47;;;6.88;;
17310;SDS011;8773;43.300;0.394;2023-08-17T14:17:15;6.90;;;6.40;;
17310;SDS011;8773;43.300;0.394;2023-08-17T14:19:42;8.10;;;7.05;;
17310;SDS011;8773;43.300;0.394;2023-08-17T14:22:11;7.25;;;6.65;;
17310;SDS011;8773;43.300;0.394;2023-08-17T14:24:38;6.82;;;6.32;;
17310;SDS011;8773;43.300;0.394;2023-08-17T14:27:05;7.80;;;7.03;;
17310;SDS011;8773;43.300;0.394;2023-08-17T14:29:33;7.45;;;6.80;;
17310;SDS011;8773;43.300;0.394;2023-08-17T14:32:00;7.18;;;6.55;;
17310;SDS011;8773;43.300;0.394;2023-08-17T14:34:28;7.65;;;6.55;;
17310;SDS011;8773;43.300;0.394;2023-08-17T14:36:55;7.82;;;7.22;;
17310;SDS011;8773;43.300;0.394;2023-08-17T14:39:24;8.23;;;7.05;;
17310;SDS011;8773;43.300;0.394;2023-08-17T14:41:51;6.78;;;6.13;;
17310;SDS011;8773;43.300;0.394;2023-08-17T14:44:18;9.20;;;6.63;;
17310;SDS011;8773;43.300;0.394;2023-08-17T14:46:46;6.80;;;6.30;;
17310;SDS011;8773;43.300;0.394;2023-08-17T14:49:13;6.40;;;6.00;;
17310;SDS011;8773;43.300;0.394;2023-08-17T14:51:41;7.15;;;6.53;;
17310;SDS011;8773;43.300;0.394;2023-08-17T14:54:08;6.93;;;6.15;;
17310;SDS011;8773;43.300;0.394;2023-08-17T14:56:37;8.23;;;7.43;;
17310;SDS011;8773;43.300;0.394;2023-08-17T14:59:05;6.88;;;6.38;;
17310;SDS011;8773;43.300;0.394;2023-08-17T15:01:36;6.90;;;6.30;;
17310;SDS011;8773;43.300;0.394;2023-08-17T15:04:04;7.65;;;7.00;;
17310;SDS011;8773;43.300;0.394;2023-08-17T15:06:31;7.53;;;6.30;;
17310;SDS011;8773;43.300;0.394;2023-08-17T15:09:08;7.20;;;6.68;;
17310;SDS011;8773;43.300;0.394;2023-08-17T15:11:35;7.03;;;6.53;;